createdAt,value
2022-12-06T00:01:14.669Z,10.33
2022-12-06T00:03:42.214Z,10.30
2022-12-06T00:06:13.841Z,9.50
2022-12-06T00:08:41.118Z,10.33
2022-12-06T00:11:12.493Z,9.80
2022-12-06T00:13:40.081Z,10.37
2022-12-06T00:16:08.986Z,10.87
2022-12-06T00:18:36.626Z,11.85
2022-12-06T00:21:11.099Z,9.90
2022-12-06T00:23:42.392Z,9.43
2022-12-06T00:26:09.834Z,10.53
2022-12-06T00:28:37.285Z,9.40
2022-12-06T00:31:06.056Z,9.77
2022-12-06T00:33:34.212Z,9.97
2022-12-06T00:36:21.480Z,9.23
2022-12-06T00:38:48.546Z,9.60
2022-12-06T00:41:16.999Z,9.50
2022-12-06T00:43:44.384Z,10.07
2022-12-06T00:46:13.672Z,9.53
2022-12-06T00:48:40.739Z,10.97
2022-12-06T00:51:07.748Z,9.60
2022-12-06T00:53:34.773Z,12.25
2022-12-06T00:56:01.820Z,10.17
2022-12-06T00:58:28.897Z,10.50
2022-12-06T01:00:55.970Z,11.00
2022-12-06T01:03:23.456Z,10.80
2022-12-06T01:05:51.823Z,10.67
2022-12-06T01:08:19.380Z,10.50
2022-12-06T01:10:53.429Z,10.13
2022-12-06T01:13:20.741Z,10.80
2022-12-06T01:15:47.810Z,11.67
2022-12-06T01:18:14.951Z,11.67
2022-12-06T01:20:42.010Z,11.27
2022-12-06T01:23:09.047Z,10.67
2022-12-06T01:25:36.682Z,10.93
2022-12-06T01:28:03.790Z,9.80
2022-12-06T01:30:30.850Z,10.30
2022-12-06T01:32:57.906Z,11.10
2022-12-06T01:35:24.905Z,10.60
2022-12-06T01:37:51.871Z,10.53
2022-12-06T01:40:18.898Z,10.40
2022-12-06T01:42:45.860Z,9.93
2022-12-06T01:45:13.186Z,9.27
2022-12-06T01:47:42.246Z,10.17
2022-12-06T01:50:15.044Z,10.00
2022-12-06T01:52:41.979Z,9.60
2022-12-06T01:55:10.435Z,9.37
2022-12-06T01:57:37.497Z,9.77
2022-12-06T02:00:05.348Z,9.97
2022-12-06T02:02:32.441Z,10.07
2022-12-06T02:04:59.813Z,9.07
2022-12-06T02:07:27.629Z,8.93
2022-12-06T02:09:55.078Z,8.90
2022-12-06T02:12:22.043Z,8.97
2022-12-06T02:14:51.003Z,10.00
2022-12-06T02:17:23.537Z,8.73
2022-12-06T02:19:58.389Z,9.13
2022-12-06T02:22:31.614Z,8.63
2022-12-06T02:25:02.817Z,8.90
2022-12-06T02:27:55.410Z,8.70
2022-12-06T02:30:36.407Z,8.70
2022-12-06T02:33:11.715Z,9.20
2022-12-06T02:35:43.436Z,8.77
2022-12-06T02:38:24.490Z,8.50
2022-12-06T02:40:55.828Z,9.77
2022-12-06T02:43:25.827Z,9.13
2022-12-06T02:45:54.544Z,9.17
2022-12-06T02:48:22.630Z,9.48
2022-12-06T02:50:55.638Z,9.17
2022-12-06T02:53:24.630Z,8.80
2022-12-06T02:55:52.015Z,9.00
2022-12-06T02:58:18.984Z,8.43
2022-12-06T03:01:00.250Z,8.97
2022-12-06T03:03:42.130Z,8.20
2022-12-06T03:06:16.143Z,8.87
2022-12-06T03:09:00.346Z,8.40
2022-12-06T03:11:32.387Z,8.47
2022-12-06T03:14:02.251Z,8.63
2022-12-06T03:16:43.169Z,8.07
2022-12-06T03:19:16.810Z,8.67
2022-12-06T03:21:47.662Z,8.27
2022-12-06T03:24:15.483Z,10.02
2022-12-06T03:26:44.686Z,9.13
2022-12-06T03:29:12.874Z,9.40
2022-12-06T03:31:41.625Z,9.03
2022-12-06T03:34:15.848Z,8.20
2022-12-06T03:36:44.344Z,8.60
2022-12-06T03:39:13.204Z,9.77
2022-12-06T03:41:42.895Z,8.30
2022-12-06T03:44:09.980Z,8.23
2022-12-06T03:46:42.362Z,9.07
2022-12-06T03:49:15.031Z,7.70
2022-12-06T03:51:43.084Z,7.57
2022-12-06T03:54:10.526Z,8.63
2022-12-06T03:56:38.313Z,8.03
2022-12-06T03:59:05.749Z,7.87
2022-12-06T04:01:32.914Z,7.93
2022-12-06T04:03:59.989Z,9.40
2022-12-06T04:06:27.470Z,8.70
2022-12-06T04:09:14.419Z,7.80
2022-12-06T04:11:41.471Z,8.10
2022-12-06T04:14:08.481Z,7.63
2022-12-06T04:16:54.337Z,8.20
2022-12-06T04:19:21.346Z,7.10
2022-12-06T04:22:06.928Z,8.20
2022-12-06T04:24:33.953Z,7.97
2022-12-06T04:27:19.585Z,7.93
2022-12-06T04:30:05.625Z,7.97
2022-12-06T04:32:51.436Z,7.87
2022-12-06T04:35:37.269Z,7.77
2022-12-06T04:38:23.204Z,8.65
2022-12-06T04:40:50.190Z,8.23
2022-12-06T04:43:35.807Z,8.10
2022-12-06T04:46:02.834Z,8.40
2022-12-06T04:48:29.831Z,7.60
2022-12-06T04:50:56.816Z,8.53
2022-12-06T04:53:23.770Z,8.50
2022-12-06T04:55:51.852Z,9.00
2022-12-06T04:58:18.950Z,8.60
2022-12-06T05:00:46.106Z,8.37
2022-12-06T05:03:13.861Z,8.17
2022-12-06T05:05:41.331Z,7.90
2022-12-06T05:08:08.357Z,8.73
2022-12-06T05:10:35.461Z,8.50
2022-12-06T05:13:03.030Z,8.23
2022-12-06T05:15:30.321Z,7.67
2022-12-06T05:17:57.302Z,8.70
2022-12-06T05:20:24.288Z,8.50
2022-12-06T05:22:51.290Z,8.70
2022-12-06T05:25:18.285Z,9.20
2022-12-06T05:27:45.283Z,8.13
2022-12-06T05:30:12.738Z,9.10
2022-12-06T05:32:40.654Z,8.33
2022-12-06T05:35:08.247Z,8.47
2022-12-06T05:37:35.241Z,7.80
2022-12-06T05:40:02.945Z,8.27
2022-12-06T05:42:30.151Z,8.37
2022-12-06T05:44:57.176Z,8.60
2022-12-06T05:47:24.146Z,8.53
2022-12-06T05:49:51.172Z,8.43
2022-12-06T05:52:18.176Z,8.37
2022-12-06T05:54:45.139Z,8.20
2022-12-06T05:57:12.168Z,9.03
2022-12-06T05:59:39.163Z,8.37
2022-12-06T06:02:06.446Z,9.40
2022-12-06T06:04:33.519Z,8.20
2022-12-06T06:07:00.604Z,8.47
2022-12-06T06:09:27.621Z,8.27
2022-12-06T06:11:55.822Z,8.27
2022-12-06T06:14:23.104Z,8.33
2022-12-06T06:16:52.134Z,7.70
2022-12-06T06:19:19.451Z,8.43
2022-12-06T06:21:47.011Z,8.13
2022-12-06T06:24:13.979Z,7.93
2022-12-06T06:26:40.968Z,7.80
2022-12-06T06:29:07.974Z,8.43
2022-12-06T06:31:35.187Z,8.23
2022-12-06T06:34:02.203Z,9.48
2022-12-06T06:36:29.172Z,8.37
2022-12-06T06:38:56.282Z,8.27
2022-12-06T06:41:23.273Z,7.43
2022-12-06T06:43:50.249Z,7.17
2022-12-06T06:46:17.302Z,6.70
2022-12-06T06:48:44.399Z,6.90
2022-12-06T06:51:12.845Z,7.23
2022-12-06T06:53:39.951Z,6.93
2022-12-06T06:56:07.586Z,7.10
2022-12-06T06:58:34.792Z,6.17
2022-12-06T07:01:02.632Z,6.73
2022-12-06T07:03:29.863Z,8.03
2022-12-06T07:05:57.913Z,8.53
2022-12-06T07:08:25.576Z,8.27
2022-12-06T07:10:52.581Z,8.83
2022-12-06T07:13:20.617Z,10.63
2022-12-06T07:15:47.698Z,11.23
2022-12-06T07:18:16.746Z,10.17
2022-12-06T07:20:44.509Z,9.67
2022-12-06T07:23:11.480Z,9.50
2022-12-06T07:25:38.520Z,8.73
2022-12-06T07:28:05.900Z,9.60
2022-12-06T07:30:33.297Z,7.70
2022-12-06T07:33:00.354Z,10.30
2022-12-06T07:35:48.451Z,9.00
2022-12-06T07:38:14.347Z,7.00
2022-12-06T07:41:03.571Z,6.87
2022-12-06T07:43:47.131Z,7.53
2022-12-06T07:46:14.153Z,6.57
2022-12-06T07:48:41.214Z,8.73
2022-12-06T07:51:09.463Z,7.57
2022-12-06T07:53:36.546Z,7.10
2022-12-06T07:56:07.282Z,7.10
2022-12-06T07:58:34.261Z,7.00
2022-12-06T08:01:03.142Z,7.77
2022-12-06T08:03:30.292Z,6.97
2022-12-06T08:05:57.500Z,7.47
2022-12-06T08:08:28.433Z,7.57
2022-12-06T08:10:58.996Z,6.93
2022-12-06T08:13:25.961Z,7.60
2022-12-06T08:15:52.992Z,6.60
2022-12-06T08:18:20.029Z,7.30
2022-12-06T08:20:47.187Z,7.60
2022-12-06T08:23:14.393Z,6.47
2022-12-06T08:25:41.360Z,6.50
2022-12-06T08:28:08.335Z,8.15
2022-12-06T08:30:35.414Z,7.20
2022-12-06T08:33:02.446Z,7.00
2022-12-06T08:35:29.445Z,7.43
2022-12-06T08:37:56.417Z,7.23
2022-12-06T08:40:23.411Z,7.13
2022-12-06T08:42:50.388Z,7.10
2022-12-06T08:45:17.369Z,6.90
2022-12-06T08:47:44.336Z,7.00
2022-12-06T08:50:11.432Z,6.53
2022-12-06T08:52:38.411Z,6.93
2022-12-06T08:55:05.594Z,8.43
2022-12-06T08:57:33.020Z,7.30
2022-12-06T09:00:00.297Z,12.57
2022-12-06T09:02:27.638Z,12.33
2022-12-06T09:04:54.667Z,8.50
2022-12-06T09:07:23.321Z,8.17
2022-12-06T09:09:50.291Z,8.80
2022-12-06T09:12:17.258Z,8.00
2022-12-06T09:14:44.228Z,7.90
2022-12-06T09:17:11.284Z,7.83
2022-12-06T09:19:38.353Z,7.77
2022-12-06T09:22:05.370Z,7.73
2022-12-06T09:24:32.415Z,8.13
2022-12-06T09:26:59.410Z,8.00
2022-12-06T09:29:27.506Z,9.87
2022-12-06T09:31:54.902Z,9.07
2022-12-06T09:34:21.866Z,8.70
2022-12-06T09:36:48.821Z,10.67
2022-12-06T09:39:36.059Z,11.90
2022-12-06T09:42:09.209Z,14.50
2022-12-06T09:44:49.761Z,17.15
2022-12-06T09:47:26.678Z,15.27
2022-12-06T09:50:12.556Z,16.20
2022-12-06T09:52:42.638Z,15.57
2022-12-06T09:55:29.267Z,16.10
2022-12-06T09:58:16.830Z,15.70
2022-12-06T10:00:48.360Z,16.73
2022-12-06T10:03:34.927Z,15.67
2022-12-06T10:06:03.691Z,15.53
2022-12-06T10:08:43.494Z,14.00
2022-12-06T10:11:31.999Z,13.83
2022-12-06T10:13:58.965Z,14.80
2022-12-06T10:16:37.954Z,14.47
2022-12-06T10:19:13.232Z,14.17
2022-12-06T10:21:52.081Z,14.60
2022-12-06T10:24:28.654Z,11.77
2022-12-06T10:26:56.390Z,11.03
2022-12-06T10:29:29.816Z,10.87
2022-12-06T10:32:18.228Z,11.30
2022-12-06T10:34:56.379Z,10.07
2022-12-06T10:37:23.409Z,9.37
2022-12-06T10:39:53.754Z,8.43
2022-12-06T10:42:32.672Z,8.53
2022-12-06T10:44:59.600Z,8.20
2022-12-06T10:47:33.692Z,8.80
2022-12-06T10:50:01.072Z,8.17
2022-12-06T10:52:28.273Z,8.77
2022-12-06T10:55:13.379Z,8.63
2022-12-06T10:57:59.291Z,8.57
2022-12-06T11:00:27.279Z,8.33
2022-12-06T11:03:12.984Z,8.53
2022-12-06T11:06:03.041Z,9.30
2022-12-06T11:08:39.717Z,9.30
2022-12-06T11:11:10.633Z,9.40
2022-12-06T11:13:42.965Z,9.03
2022-12-06T11:16:17.605Z,8.80
2022-12-06T11:18:45.698Z,9.23
2022-12-06T11:21:31.743Z,10.83
2022-12-06T11:24:16.491Z,10.37
2022-12-06T11:26:52.576Z,8.83
2022-12-06T11:29:19.816Z,9.20
2022-12-06T11:31:52.021Z,8.30
2022-12-06T11:34:20.793Z,9.70
2022-12-06T11:36:49.296Z,7.53
2022-12-06T11:39:16.569Z,7.47
2022-12-06T11:41:44.582Z,7.20
2022-12-06T11:44:20.245Z,7.83
2022-12-06T11:46:49.138Z,8.57
2022-12-06T11:49:17.635Z,8.50
2022-12-06T11:51:44.614Z,8.17
2022-12-06T11:54:21.286Z,8.10
2022-12-06T11:56:48.618Z,7.70
2022-12-06T11:59:20.453Z,7.93
2022-12-06T12:01:50.087Z,7.10
2022-12-06T12:04:32.483Z,6.37
2022-12-06T12:07:01.430Z,6.60
2022-12-06T12:09:31.024Z,6.40
2022-12-06T12:12:02.518Z,6.70
2022-12-06T12:14:34.180Z,8.73
2022-12-06T12:17:02.667Z,7.37
2022-12-06T12:19:39.866Z,7.07
2022-12-06T12:22:16.229Z,7.37
2022-12-06T12:27:41.285Z,7.63
2022-12-06T12:30:28.240Z,7.80
2022-12-06T12:33:07.491Z,7.73
2022-12-06T12:35:35.694Z,8.00
2022-12-06T12:38:07.088Z,7.50
2022-12-06T12:40:34.050Z,8.03
2022-12-06T12:43:08.757Z,7.97
2022-12-06T12:45:35.876Z,7.13
2022-12-06T12:48:22.361Z,7.88
2022-12-06T12:51:03.173Z,7.63
2022-12-06T12:53:30.340Z,7.27
2022-12-06T12:56:17.241Z,7.43
2022-12-06T12:58:45.172Z,7.63
2022-12-06T13:01:32.488Z,7.73
2022-12-06T13:04:11.545Z,7.07
2022-12-06T13:07:17.397Z,6.27
2022-12-06T13:09:47.305Z,6.43
2022-12-06T13:12:18.690Z,7.13
2022-12-06T13:14:51.181Z,7.23
2022-12-06T13:17:18.219Z,7.00
2022-12-06T13:19:51.691Z,7.03
2022-12-06T13:22:23.826Z,7.70
2022-12-06T13:24:55.281Z,6.97
2022-12-06T13:27:22.848Z,7.17
2022-12-06T13:29:53.521Z,8.25
2022-12-06T13:32:22.501Z,7.37
2022-12-06T13:34:51.336Z,8.17
2022-12-06T13:37:28.844Z,7.37
2022-12-06T13:39:56.525Z,8.40
2022-12-06T13:42:40.599Z,6.90
2022-12-06T13:45:27.542Z,6.60
2022-12-06T13:47:54.551Z,6.33
2022-12-06T13:50:21.566Z,6.03
2022-12-06T13:52:48.534Z,6.17
2022-12-06T13:55:24.711Z,5.90
2022-12-06T13:58:00.604Z,6.60
2022-12-06T14:00:30.356Z,12.57
2022-12-06T14:02:58.551Z,5.43
2022-12-06T14:05:44.349Z,5.67
2022-12-06T14:08:12.457Z,15.70
2022-12-06T14:10:39.848Z,10.23
2022-12-06T14:13:06.867Z,5.23
2022-12-06T14:15:38.552Z,5.43
2022-12-06T14:18:12.746Z,5.53
2022-12-06T14:20:42.305Z,5.47
2022-12-06T14:23:28.211Z,5.67
2022-12-06T14:26:13.686Z,5.40
2022-12-06T14:28:42.167Z,5.43
2022-12-06T14:31:18.010Z,5.10
2022-12-06T14:33:45.145Z,5.03
2022-12-06T14:36:17.966Z,5.80
2022-12-06T14:38:51.322Z,5.63
2022-12-06T14:41:38.473Z,5.57
2022-12-06T14:44:14.349Z,6.00
2022-12-06T14:46:41.988Z,5.80
2022-12-06T14:49:35.677Z,6.00
2022-12-06T14:52:02.646Z,5.30
2022-12-06T14:54:32.872Z,5.10
2022-12-06T14:57:00.218Z,5.57
2022-12-06T15:00:11.018Z,5.57
2022-12-06T15:02:21.826Z,4.93
2022-12-06T15:04:49.040Z,5.70
2022-12-06T15:07:31.487Z,5.43
2022-12-06T15:10:08.027Z,5.60
2022-12-06T15:12:54.775Z,6.03
2022-12-06T15:15:54.638Z,6.00
2022-12-06T15:18:30.326Z,5.87
2022-12-06T15:20:57.361Z,6.33
2022-12-06T15:23:28.764Z,6.33
2022-12-06T15:25:55.804Z,6.27
2022-12-06T15:28:22.889Z,6.63
2022-12-06T15:30:50.397Z,6.07
2022-12-06T15:33:18.724Z,5.60
2022-12-06T15:35:45.980Z,5.73
2022-12-06T15:38:13.085Z,6.50
2022-12-06T15:40:41.578Z,6.23
2022-12-06T15:43:28.672Z,6.50
2022-12-06T15:45:56.202Z,6.10
2022-12-06T15:48:23.299Z,7.60
2022-12-06T15:50:50.375Z,7.93
2022-12-06T15:53:18.834Z,7.27
2022-12-06T15:55:45.998Z,6.73
2022-12-06T15:58:12.995Z,7.30
2022-12-06T16:00:39.994Z,8.15
2022-12-06T16:03:08.115Z,7.47
2022-12-06T16:05:35.525Z,7.57
2022-12-06T16:08:02.575Z,6.70
2022-12-06T16:11:03.108Z,6.00
2022-12-06T16:13:23.298Z,6.50
2022-12-06T16:15:51.404Z,7.20
2022-12-06T16:18:18.444Z,6.97
2022-12-06T16:20:45.507Z,7.20
2022-12-06T16:24:04.229Z,6.43
2022-12-06T16:26:19.669Z,6.60
2022-12-06T16:28:46.750Z,6.43
2022-12-06T16:31:14.236Z,6.73
2022-12-06T16:33:41.450Z,6.93
2022-12-06T16:36:22.430Z,6.63
2022-12-06T16:38:54.323Z,6.43
2022-12-06T16:41:23.417Z,6.80
2022-12-06T16:43:50.753Z,6.43
2022-12-06T16:46:17.742Z,7.10
2022-12-06T16:48:44.769Z,6.77
2022-12-06T16:51:11.964Z,6.70
2022-12-06T16:53:38.959Z,6.53
2022-12-06T16:56:06.064Z,7.13
2022-12-06T16:58:33.034Z,6.17
2022-12-06T17:01:00.518Z,6.83
2022-12-06T17:03:27.522Z,5.63
2022-12-06T17:05:54.767Z,6.57
2022-12-06T17:08:22.297Z,6.20
2022-12-06T17:11:09.426Z,7.10
2022-12-06T17:13:36.430Z,6.80
2022-12-06T17:16:07.138Z,6.43
2022-12-06T17:18:34.141Z,7.20
2022-12-06T17:21:05.715Z,7.73
2022-12-06T17:23:32.700Z,9.17
2022-12-06T17:25:59.718Z,8.43
2022-12-06T17:28:27.709Z,7.40
2022-12-06T17:30:54.702Z,7.10
2022-12-06T17:33:21.757Z,8.07
2022-12-06T17:35:49.347Z,6.83
2022-12-06T17:38:16.317Z,6.73
2022-12-06T17:46:10.574Z,7.17
2022-12-06T17:48:44.265Z,6.65
2022-12-06T17:51:11.938Z,7.17
2022-12-06T17:53:38.947Z,7.13
2022-12-06T17:56:24.668Z,6.30
2022-12-06T17:58:52.769Z,6.70
2022-12-06T18:01:19.906Z,6.77
2022-12-06T18:03:49.819Z,6.90
2022-12-06T18:06:16.818Z,7.00
2022-12-06T18:08:43.802Z,7.57
2022-12-06T18:11:10.809Z,7.43
2022-12-06T18:13:37.768Z,7.20
2022-12-06T18:16:23.977Z,7.37
2022-12-06T18:18:52.485Z,7.03
2022-12-06T18:21:19.658Z,6.87
2022-12-06T18:24:19.831Z,6.30
2022-12-06T18:26:36.211Z,6.80
2022-12-06T18:29:05.971Z,6.53
2022-12-06T18:31:37.112Z,7.33
2022-12-06T18:34:05.571Z,7.10
2022-12-06T18:36:32.722Z,7.23
2022-12-06T18:39:09.490Z,6.73
2022-12-06T18:41:39.594Z,6.80
2022-12-06T18:44:08.009Z,6.17
2022-12-06T18:46:35.024Z,6.00
2022-12-06T18:49:02.549Z,7.00
2022-12-06T18:51:30.937Z,6.33
2022-12-06T18:53:58.998Z,6.70
2022-12-06T18:56:26.996Z,6.20
2022-12-06T18:58:54.024Z,6.30
2022-12-06T19:01:22.244Z,5.80
2022-12-06T19:03:49.687Z,7.80
2022-12-06T19:06:16.742Z,7.13
2022-12-06T19:08:44.190Z,6.63
2022-12-06T19:11:17.602Z,7.05
2022-12-06T19:13:53.205Z,5.87
2022-12-06T19:16:22.605Z,6.30
2022-12-06T19:18:50.597Z,7.47
2022-12-06T19:21:18.962Z,6.70
2022-12-06T19:23:46.492Z,8.60
2022-12-06T19:26:14.331Z,14.52
2022-12-06T19:28:42.047Z,9.17
2022-12-06T19:31:10.652Z,9.13
2022-12-06T19:33:39.054Z,12.13
2022-12-06T19:36:07.726Z,8.30
2022-12-06T19:38:35.168Z,9.07
2022-12-06T19:41:03.741Z,8.77
2022-12-06T19:43:49.501Z,7.53
2022-12-06T19:46:21.760Z,7.80
2022-12-06T19:48:49.524Z,9.87
2022-12-06T19:51:17.002Z,10.27
2022-12-06T19:53:44.003Z,11.03
2022-12-06T19:56:13.028Z,8.57
2022-12-06T19:58:40.483Z,8.67
2022-12-06T20:01:11.389Z,10.23
2022-12-06T20:03:38.450Z,17.90
2022-12-06T20:06:12.887Z,9.23
2022-12-06T20:08:47.190Z,11.13
2022-12-06T20:11:34.004Z,7.37
2022-12-06T20:14:01.709Z,8.70
2022-12-06T20:16:28.713Z,7.33
2022-12-06T20:18:55.968Z,8.27
2022-12-06T20:21:23.067Z,7.40
2022-12-06T20:23:50.108Z,9.30
2022-12-06T20:26:17.170Z,8.07
2022-12-06T20:28:45.043Z,8.87
2022-12-06T20:31:12.924Z,8.75
2022-12-06T20:33:40.376Z,7.30
2022-12-06T20:36:10.281Z,7.93
2022-12-06T20:38:37.359Z,7.13
2022-12-06T20:41:14.858Z,8.90
2022-12-06T20:43:42.388Z,8.73
2022-12-06T20:46:15.036Z,9.47
2022-12-06T20:48:43.379Z,27.90
2022-12-06T20:51:11.964Z,6.97
2022-12-06T20:53:39.181Z,6.40
2022-12-06T20:56:07.301Z,5.87
2022-12-06T20:58:34.374Z,6.47
2022-12-06T21:01:01.918Z,6.20
2022-12-06T21:03:29.520Z,7.23
2022-12-06T21:06:03.831Z,6.70
2022-12-06T21:08:31.167Z,8.20
2022-12-06T21:11:25.764Z,7.78
2022-12-06T21:13:45.816Z,7.17
2022-12-06T21:16:16.135Z,7.30
2022-12-06T21:18:43.733Z,6.70
2022-12-06T21:21:11.068Z,6.80
2022-12-06T21:23:39.345Z,6.87
2022-12-06T21:26:06.944Z,6.93
2022-12-06T21:28:34.338Z,8.80
2022-12-06T21:31:01.458Z,11.03
2022-12-06T21:33:28.679Z,7.53
2022-12-06T21:35:58.839Z,7.93
2022-12-06T21:38:26.238Z,9.37
2022-12-06T21:41:01.541Z,8.20
2022-12-06T21:43:28.840Z,7.40
2022-12-06T21:45:56.421Z,7.43
2022-12-06T21:48:23.489Z,8.00
2022-12-06T21:50:50.504Z,8.63
2022-12-06T21:53:17.560Z,8.63
2022-12-06T21:55:44.806Z,10.30
2022-12-06T21:58:11.917Z,8.73
2022-12-06T22:00:38.927Z,10.20
2022-12-06T22:03:05.979Z,15.87
2022-12-06T22:05:32.982Z,10.20
2022-12-06T22:08:00.019Z,8.47
2022-12-06T22:10:27.037Z,11.33
2022-12-06T22:12:54.051Z,11.20
2022-12-06T22:15:21.034Z,13.80
2022-12-06T22:17:48.036Z,10.03
2022-12-06T22:20:15.074Z,18.10
2022-12-06T22:22:42.053Z,22.00
2022-12-06T22:25:09.304Z,13.37
2022-12-06T22:27:36.356Z,17.27
2022-12-06T22:30:03.667Z,12.37
2022-12-06T22:32:33.616Z,17.45
2022-12-06T22:35:00.594Z,21.63
2022-12-06T22:37:28.692Z,20.27
2022-12-06T22:39:55.879Z,28.27
2022-12-06T22:42:23.008Z,19.43
2022-12-06T22:44:50.021Z,9.90
2022-12-06T22:47:17.087Z,11.33
2022-12-06T22:49:44.255Z,9.57
2022-12-06T22:52:11.242Z,10.00
2022-12-06T22:54:38.201Z,10.00
2022-12-06T22:57:05.226Z,9.17
2022-12-06T22:59:32.310Z,9.90
2022-12-06T23:01:59.403Z,9.87
2022-12-06T23:04:27.616Z,10.23
2022-12-06T23:06:54.641Z,9.63
2022-12-06T23:09:21.871Z,9.63
2022-12-06T23:11:48.978Z,10.87
2022-12-06T23:14:16.049Z,9.40
2022-12-06T23:16:45.197Z,9.40
2022-12-06T23:19:12.433Z,9.43
2022-12-06T23:21:40.963Z,9.93
2022-12-06T23:24:08.799Z,9.43
2022-12-06T23:26:37.133Z,9.13
2022-12-06T23:29:04.552Z,9.50
2022-12-06T23:31:33.523Z,9.97
2022-12-06T23:34:01.987Z,10.20
2022-12-06T23:36:29.813Z,9.07
2022-12-06T23:38:57.025Z,9.17
2022-12-06T23:41:25.282Z,9.03
2022-12-06T23:43:53.391Z,9.20
2022-12-06T23:46:22.617Z,8.60
2022-12-06T23:48:50.452Z,9.30
2022-12-06T23:51:18.820Z,9.27
2022-12-06T23:53:49.821Z,8.60
2022-12-06T23:56:17.835Z,9.37
2022-12-06T23:58:45.374Z,9.23
